Latest Weather Observations for Wagga Wagga

IDN60801

Issued at 2:02 pm EDT Thursday 2 April 2015 (issued every 30 minutes, with the page automatically refreshed every 10 minutes)

About weather observations | Map of weather stations | Latest weather observations for NSW | Other Formats
Station Details ID: 072150 Name: WAGGA WAGGA AMO Lat: -35.16 Lon: 147.46 Height: 212.0 m
Data from the previous 72 hours. | See also: Recent months at Wagga Wagga
Date/Time
EDT
Temp
°C
App
Temp
°C
Dew
Point
Rel
Hum
%
Delta-T
°C
Wind Press
QNH
hPa
Press
MSL
hPa
Rain
since 9 am
mm
Dir
 
Spd
km/h
Gust
km/h
Spd
kts
Gust
kts
02/02:00pm 24.8 20.7 11.5 43 7.6 W 24 32 13 17 1017.5 1017.2 0.0
02/01:30pm 24.5 21.5 10.8 42 7.7 W 17 26 9 14 1017.6 1017.3 0.0
02/01:00pm 25.2 22.0 9.9 38 8.5 W 17 26 9 14 1017.8 1017.5 0.0
02/12:30pm 25.7 22.4 9.6 36 8.9 WSW 17 24 9 13 1017.9 1017.6 0.0
02/12:00pm 25.7 22.0 9.4 35 9.0 W 19 30 10 16 1017.9 1017.6 0.0
02/11:30am 25.5 22.4 10.3 38 8.5 W 17 22 9 12 1018.0 1017.7 0.0
02/11:00am 25.5 23.7 10.8 39 8.3 NW 11 19 6 10 1018.1 1017.8 0.0
02/10:30am 24.4 23.4 10.9 42 7.6 NW 7 9 4 5 1018.0 1017.7 0.0
02/10:00am 23.1 21.6 10.5 45 7.0 WSW 9 15 5 8 1017.8 1017.5 0.0
02/09:00am 21.6 19.9 9.8 47 6.4 WNW 9 11 5 6 1017.8 1017.5 0.0
02/08:30am 20.9 19.3 10.1 50 5.9 WNW 9 11 5 6 1017.5 1017.2 0.0
02/08:00am 20.5 19.0 10.5 52 5.5 WNW 9 11 5 6 1017.1 1016.8 0.0
02/07:30am 19.8 19.0 11.1 57 4.8 N 6 7 3 4 1016.7 1016.4 0.0
02/07:00am 19.5 19.7 10.7 56 4.8 CALM 0 0 0 0 1016.4 1016.1 0.0
02/06:30am 18.1 16.2 10.5 61 4.1 SW 11 32 6 17 1016.1 1015.8 0.0
02/05:30am 18.7 17.7 10.4 58 4.5 E 6 7 3 4 1015.3 1015.0 0.0
02/05:00am 19.3 18.2 10.7 57 4.7 N 7 9 4 5 1015.3 1015.0 0.0
02/04:30am 19.5 19.6 10.3 55 5.0 CALM 0 0 0 0 1015.4 1015.1 0.0
02/04:00am 18.0 18.2 10.6 62 4.0 CALM 0 0 0 0 1015.6 1015.3 0.0
02/03:30am 18.3 17.8 10.6 61 4.2 SSW 4 7 2 4 1015.8 1015.5 0.0
02/03:00am 18.3 18.5 10.6 61 4.2 CALM 0 0 0 0 1016.1 1015.8 0.0
02/02:30am 17.7 16.7 8.7 55 4.7 NNE 4 7 2 4 1016.4 1016.1 0.0
02/02:00am 18.5 18.6 10.1 58 4.5 CALM 0 0 0 0 1016.7 1016.4 0.0
02/01:30am 18.2 18.2 9.8 58 4.5 CALM 0 0 0 0 1017.0 1016.7 0.0
02/01:00am 17.5 17.4 9.6 60 4.2 CALM 0 0 0 0 1017.1 1016.8 0.0
02/12:30am 18.6 18.7 10.0 57 4.6 CALM 0 0 0 0 1017.3 1017.0 0.0
02/12:00am 18.5 17.4 10.6 60 4.3 NE 7 7 4 4 1017.5 1017.2 0.0
 
Date/Time
EDT
Temp
°C
App
Temp
°C
Dew
Point
Rel
Hum
%
Delta-T
°C
Wind Press
QNH
hPa
Press
MSL
hPa
Rain
since 9 am
mm
Dir
 
Spd
km/h
Gust
km/h
Spd
kts
Gust
kts
01/11:30pm 18.5 17.3 10.4 59 4.4 NE 7 7 4 4 1017.6 1017.3 0.0
01/11:00pm 18.8 18.7 9.4 54 5.0 CALM 0 0 0 0 1017.7 1017.4 0.0
01/10:30pm 19.8 19.7 9.3 50 5.6 CALM 0 0 0 0 1017.7 1017.4 0.0
01/10:00pm 20.1 19.7 9.9 52 5.5 NE 2 6 1 3 1017.7 1017.4 0.0
01/09:00pm 23.0 21.7 10.1 44 7.1 NE 7 9 4 5 1017.5 1017.2 0.0
01/08:30pm 23.0 21.7 10.1 44 7.1 NE 7 9 4 5 1017.2 1016.9 0.0
01/08:00pm 23.6 22.8 10.9 44 7.1 N 6 7 3 4 1017.2 1016.9 0.0
01/07:30pm 24.3 23.5 11.2 43 7.4 NNW 6 7 3 4 1017.0 1016.7 0.0
01/07:00pm 25.9 24.7 10.4 37 8.7 NNW 7 9 4 5 1017.0 1016.7 0.0
01/05:30pm 27.9 25.4 9.7 32 10.2 NNE 13 19 7 10 1016.8 1016.5 0.0
01/05:00pm 28.3 25.6 9.1 30 10.7 NNW 13 22 7 12 1016.9 1016.6 0.0
01/04:30pm 28.4 25.2 8.4 28 11.0 N 15 28 8 15 1017.1 1016.8 0.0
01/04:00pm 27.8 25.3 9.8 32 10.1 N 13 22 7 12 1017.4 1017.1 0.0
01/03:30pm 28.0 25.3 9.1 30 10.5 N 13 26 7 14 1017.7 1017.4 0.0
01/03:00pm 28.0 26.1 9.1 30 10.5 NNW 9 15 5 8 1018.2 1017.9 0.0
01/02:30pm 27.6 24.7 9.5 32 10.1 NNE 15 26 8 14 1018.8 1018.5 0.0
01/02:00pm 27.5 24.9 9.3 32 10.1 NE 13 20 7 11 1019.4 1019.1 0.0
01/01:30pm 26.9 24.4 9.7 34 9.6 NE 13 24 7 13 1020.0 1019.7 0.0
01/01:00pm 26.3 24.0 10.5 37 8.9 N 13 22 7 12 1020.7 1020.4 0.0
01/12:30pm 26.3 24.2 11.0 38 8.7 NE 13 22 7 12 1021.3 1021.0 0.0
01/12:00pm 25.4 22.6 11.3 41 8.0 NE 17 26 9 14 1021.8 1021.5 0.0
01/11:30am 24.2 21.4 11.3 44 7.3 NE 17 26 9 14 1022.2 1021.9 0.0
01/11:00am 23.8 20.6 11.4 45 7.0 ENE 19 26 10 14 1022.7 1022.4 0.0
01/10:30am 22.1 18.7 11.2 50 6.1 NE 20 30 11 16 1023.0 1022.3 0.0
01/10:00am 21.2 18.0 11.3 53 5.5 NE 19 24 10 13 1023.5 1022.8 0.0
01/09:30am 20.3 17.9 11.5 57 4.9 ENE 15 22 8 12 1023.5 1022.8 0.0
01/09:00am 19.2 16.7 11.2 60 4.4 E 15 19 8 10 1023.4 1022.7 0.0
01/08:30am 18.3 16.7 11.6 65 3.7 E 11 15 6 8 1023.3 1022.6 0.0
01/08:00am 17.2 14.4 11.5 69 3.1 E 17 26 9 14 1022.9 1022.2 0.0
01/07:30am 16.6 13.5 11.5 72 2.8 E 19 24 10 13 1022.7 1022.0 0.0
01/07:00am 16.7 14.0 11.6 72 2.8 ENE 17 22 9 12 1022.5 1021.8 0.0
01/06:30am 16.6 13.9 11.7 73 2.7 ENE 17 20 9 11 1022.6 1021.9 0.0
01/06:00am 16.4 14.0 11.4 72 2.7 E 15 15 8 8 1022.5 1021.8 0.0
01/05:30am 17.1 14.8 11.6 70 3.0 E 15 19 8 10 1022.5 1021.8 0.0
01/05:00am 17.7 15.8 11.7 68 3.3 E 13 17 7 9 1022.6 1021.9 0.0
01/04:30am 17.7 15.8 11.7 68 3.3 E 13 17 7 9 1022.6 1021.9 0.0
01/04:00am 17.7 15.0 11.7 68 3.3 ENE 17 19 9 10 1022.7 1022.0 0.0
01/03:30am 18.2 14.9 11.5 65 3.7 E 20 28 11 15 1022.9 1022.2 0.0
01/03:00am 18.3 15.9 11.4 64 3.8 E 15 17 8 9 1023.3 1022.6 0.0
01/02:30am 17.5 16.6 10.8 65 3.6 NE 6 7 3 4 1023.6 1022.9 0.0
01/02:00am 17.2 15.6 10.3 64 3.7 NNE 9 11 5 6 1023.9 1023.3 0.0
01/01:30am 18.0 15.6 9.9 59 4.3 ENE 13 19 7 10 1023.9 1023.3 0.0
01/01:00am 20.0 16.4 10.4 54 5.2 ENE 20 32 11 17 1023.8 1023.2 0.0
01/12:30am 20.0 18.2 9.5 50 5.6 NNE 9 15 5 8 1023.9 1023.3 0.0
01/12:00am 16.7 15.7 5.8 48 5.3 CALM 0 4 0 2 1023.9 1023.3 0.0
 
Date/Time
EDT
Temp
°C
App
Temp
°C
Dew
Point
Rel
Hum
%
Delta-T
°C
Wind Press
QNH
hPa
Press
MSL
hPa
Rain
since 9 am
mm
Dir
 
Spd
km/h
Gust
km/h
Spd
kts
Gust
kts
31/11:30pm 20.8 18.1 7.5 42 6.9 ENE 11 17 6 9 1023.6 1022.9 0.0
31/11:00pm 20.9 17.1 6.0 38 7.5 E 15 19 8 10 1023.5 1022.8 0.0
31/10:30pm 20.7 16.6 6.0 38 7.4 E 17 19 9 10 1023.2 1022.5 0.0
31/10:00pm 20.7 18.5 6.3 39 7.3 ESE 7 11 4 6 1023.0 1022.3 0.0
31/09:30pm 21.3 19.4 6.9 39 7.4 ENE 6 13 3 7 1023.0 1022.3 0.0
31/09:00pm 20.5 18.8 7.6 43 6.7 NE 6 6 3 3 1022.9 1022.2 0.0
31/08:30pm 21.4 20.0 7.3 40 7.3 NE 4 7 2 4 1022.7 1022.0 0.0
31/08:00pm 22.8 20.7 6.8 35 8.3 NE 7 9 4 5 1022.4 1021.7 0.0
31/07:30pm 24.2 21.9 7.6 34 8.8 NE 9 9 5 5 1022.1 1021.4 0.0
31/07:00pm 25.2 22.9 7.5 32 9.4 NE 9 11 5 6 1021.9 1021.2 0.0
31/06:30pm 26.6 23.5 5.6 26 10.9 NE 11 17 6 9 1021.7 1021.0 0.0
31/06:00pm 27.1 22.8 5.2 24 11.3 ENE 17 22 9 12 1021.5 1020.8 0.0
31/05:30pm 27.6 23.0 5.5 24 11.5 ENE 19 26 10 14 1021.4 1020.7 0.0
31/05:00pm 27.9 24.0 5.5 24 11.7 NE 15 32 8 17 1021.5 1020.8 0.0
31/04:30pm 28.2 24.2 5.1 23 12.0 ENE 15 24 8 13 1021.5 1020.8 0.0
31/04:00pm 27.8 24.0 5.9 25 11.5 ENE 15 24 8 13 1021.9 1021.2 0.0
31/03:30pm 28.0 23.8 5.9 24 11.7 NE 17 26 9 14 1022.4 1021.7 0.0
31/03:00pm 27.6 23.9 6.4 26 11.2 ENE 15 28 8 15 1022.9 1022.2 0.0
31/02:30pm 27.6 23.4 5.8 25 11.4 ENE 17 26 9 14 1023.3 1022.6 0.0
31/02:00pm 27.4 24.5 8.1 29 10.5 NE 13 28 7 15 1023.7 1023.0 0.0
31/01:30pm 26.9 24.0 8.3 31 10.2 NE 13 28 7 15 1024.4 1023.7 0.0
31/01:00pm 26.2 22.8 7.5 30 10.0 NE 15 24 8 13 1025.0 1024.3 0.0
31/12:30pm 26.1 23.4 8.9 33 9.4 NE 13 22 7 12 1025.6 1024.9 0.0
31/12:00pm 24.5 20.8 8.0 35 8.8 NE 17 24 9 13 1026.0 1025.3 0.0
31/11:30am 23.7 19.7 8.4 37 8.2 ENE 19 26 10 14 1026.2 1025.5 0.0
31/11:00am 22.6 18.5 7.7 38 7.8 ENE 19 28 10 15 1026.5 1025.8 0.0
31/10:30am 21.8 17.7 6.0 35 8.0 ENE 17 19 9 10 1026.7 1026.0 0.0
31/10:00am 19.7 16.0 4.4 36 7.4 ESE 13 15 7 8 1026.7 1026.0 0.0
31/09:30am 17.9 14.5 3.9 39 6.7 E 11 13 6 7 1026.6 1025.9 0.0
31/09:00am 16.4 12.9 3.7 42 5.9 E 11 13 6 7 1026.3 1025.6 0.0
31/08:30am 14.5 11.4 3.8 48 4.9 ESE 9 11 5 6 1025.8 1025.1 0.0
31/08:00am 12.7 9.7 4.1 56 3.9 E 9 9 5 5 1025.5 1024.8 0.0
31/07:30am 11.8 9.1 3.8 58 3.6 E 7 7 4 4 1025.2 1024.5 0.0
31/07:00am 12.1 8.6 3.6 56 3.8 E 11 11 6 6 1024.8 1024.1 0.0
31/06:30am 13.2 8.5 3.4 51 4.4 ESE 17 17 9 9 1024.6 1023.9 0.0
31/06:00am 12.0 8.1 3.5 56 3.8 E 13 13 7 7 1024.3 1023.6 0.0
31/05:30am 11.3 8.3 3.9 60 3.3 ESE 9 11 5 6 1024.3 1023.6 0.0
31/05:00am 10.9 9.5 3.4 60 3.3 CALM 0 0 0 0 1024.3 1023.6 0.0
31/04:30am 11.1 8.3 2.9 57 3.6 E 7 9 4 5 1024.3 1023.6 0.0
31/04:00am 11.1 9.6 3.1 58 3.5 CALM 0 4 0 2 1024.4 1023.7 0.0
31/03:30am 12.7 9.5 2.8 51 4.4 ESE 9 13 5 7 1024.5 1023.8 0.0
31/03:00am 13.0 9.8 3.2 51 4.4 E 9 11 5 6 1024.6 1023.9 0.0
31/02:30am 14.2 9.7 2.2 44 5.3 ESE 15 17 8 9 1024.7 1024.0 0.0
31/02:00am 12.1 8.9 2.8 53 4.1 ENE 9 11 5 6 1024.8 1024.1 0.0
31/01:30am 12.7 9.4 2.2 49 4.6 ESE 9 9 5 5 1024.7 1024.0 0.0
31/01:00am 13.0 11.4 2.6 49 4.6 CALM 0 0 0 0 1024.6 1023.9 0.0
31/12:30am 12.8 11.3 2.9 51 4.4 CALM 0 2 0 1 1024.6 1023.9 0.0
31/12:00am 13.3 11.6 2.1 46 4.9 CALM 0 0 0 0 1024.5 1023.8 0.0
 
Date/Time
EDT
Temp
°C
App
Temp
°C
Dew
Point
Rel
Hum
%
Delta-T
°C
Wind Press
QNH
hPa
Press
MSL
hPa
Rain
since 9 am
mm
Dir
 
Spd
km/h
Gust
km/h
Spd
kts
Gust
kts
30/11:30pm 13.6 11.5 1.6 44 5.2 SSE 2 7 1 4 1024.5 1023.8 0.0
30/11:00pm 15.6 12.2 1.6 38 6.2 E 9 11 5 6 1024.3 1023.6 0.0
30/10:30pm 16.9 11.8 0.7 33 7.1 ESE 17 17 9 9 1024.3 1023.6 0.0
30/10:00pm 15.9 14.5 3.3 43 5.8 CALM 0 0 0 0 1024.2 1023.5 0.0
30/09:30pm 17.2 15.9 4.1 41 6.2 CALM 0 0 0 0 1023.9 1023.3 0.0
30/09:00pm 17.9 16.2 1.8 34 7.3 CALM 0 0 0 0 1023.7 1023.0 0.0
30/08:30pm 19.1 14.6 -0.6 26 8.6 S 13 15 7 8 1023.6 1022.9 0.0
30/08:00pm 17.9 14.2 2.1 34 7.2 SSW 11 13 6 7 1023.3 1022.6 0.0
30/07:30pm 20.7 17.4 2.7 30 8.5 SW 9 13 5 7 1023.1 1022.4 0.0
30/07:00pm 23.7 20.8 2.5 25 10.2 SE 7 9 4 5 1022.8 1022.1 0.0
30/06:30pm 24.7 21.9 2.3 23 10.8 SE 6 7 3 4 1022.5 1021.8 0.0
30/06:00pm 25.5 21.5 0.2 19 11.8 S 11 17 6 9 1022.2 1021.5 0.0
30/05:30pm 26.0 23.7 0.6 19 12.0 WSW 2 9 1 5 1022.0 1021.3 0.0
30/05:00pm 25.4 21.4 0.8 20 11.6 WSW 11 15 6 8 1021.9 1021.2 0.0
30/04:30pm 26.0 21.6 0.6 19 12.0 WSW 13 20 7 11 1021.9 1021.2 0.0
30/04:00pm 24.8 21.5 2.5 23 10.8 SW 9 15 5 8 1022.0 1021.3 0.0
30/03:30pm 26.1 22.9 3.0 22 11.4 - 9 26 5 14 1022.2 1021.5 0.0
30/03:00pm 25.6 22.2 4.0 24 10.8 N 11 17 6 9 1022.4 1021.7 0.0
30/02:30pm 25.9 22.2 4.3 25 10.9 E 13 26 7 14 1022.6 1021.9 0.0

Other Formats:

Comma delimited format used in spreadsheet applications
http://www.bom.gov.au/fwo/IDN60801/IDN60801.94910.axf

JavaScript Object Notation format (JSON) in row-major order
http://www.bom.gov.au/fwo/IDN60801/IDN60801.94910.json